createdAt,value
2023-03-23T00:01:21.906Z,5.00
2023-03-23T00:03:54.461Z,4.57
2023-03-23T00:06:22.121Z,4.80
2023-03-23T00:08:54.280Z,4.80
2023-03-23T00:11:30.157Z,4.30
2023-03-23T00:14:02.156Z,4.10
2023-03-23T00:16:33.518Z,4.40
2023-03-23T00:19:03.721Z,3.80
2023-03-23T00:21:36.282Z,3.78
2023-03-23T00:24:07.304Z,4.15
2023-03-23T00:26:47.827Z,3.70
2023-03-23T00:29:22.406Z,3.42
2023-03-23T00:31:52.211Z,3.67
2023-03-23T00:34:22.032Z,3.20
2023-03-23T00:37:03.315Z,3.25
2023-03-23T00:39:30.797Z,4.32
2023-03-23T00:42:01.957Z,4.32
2023-03-23T00:44:31.547Z,3.17
2023-03-23T00:46:59.076Z,2.92
2023-03-23T00:49:27.549Z,4.07
2023-03-23T00:51:57.134Z,4.25
2023-03-23T00:54:26.245Z,4.10
2023-03-23T00:56:53.438Z,4.10
2023-03-23T00:59:21.500Z,3.40
2023-03-23T01:01:49.823Z,3.10
2023-03-23T01:04:17.531Z,3.25
2023-03-23T01:06:45.789Z,2.80
2023-03-23T01:09:18.615Z,2.53
2023-03-23T01:11:46.394Z,2.38
2023-03-23T01:14:15.850Z,2.63
2023-03-23T01:16:42.999Z,2.60
2023-03-23T01:19:10.604Z,3.15
2023-03-23T01:21:37.954Z,3.40
2023-03-23T01:24:05.517Z,3.40
2023-03-23T01:26:32.558Z,3.00
2023-03-23T01:28:59.803Z,2.90
2023-03-23T01:31:27.560Z,2.83
2023-03-23T01:33:56.609Z,2.70
2023-03-23T01:38:56.210Z,3.40
2023-03-23T01:41:24.708Z,3.90
2023-03-23T01:44:05.264Z,3.85
2023-03-23T01:46:45.292Z,4.27
2023-03-23T01:49:18.286Z,3.97
2023-03-23T01:51:57.446Z,2.80
2023-03-23T01:54:26.155Z,2.65
2023-03-23T01:57:00.234Z,2.70
2023-03-23T01:59:31.512Z,2.50
2023-03-23T02:02:16.332Z,2.42
2023-03-23T02:04:44.294Z,2.70
2023-03-23T02:07:12.855Z,2.70
2023-03-23T02:09:40.367Z,2.50
2023-03-23T02:12:07.464Z,2.43
2023-03-23T02:14:36.789Z,2.80
2023-03-23T02:17:19.240Z,2.55
2023-03-23T02:19:55.451Z,2.70
2023-03-23T02:22:52.104Z,3.42
2023-03-23T02:25:37.063Z,3.30
2023-03-23T02:28:13.577Z,3.38
2023-03-23T02:30:54.127Z,3.42
2023-03-23T02:33:33.147Z,3.22
2023-03-23T02:36:11.613Z,2.72
2023-03-23T02:38:57.529Z,3.60
2023-03-23T02:41:31.961Z,3.60
2023-03-23T02:44:00.200Z,3.33
2023-03-23T02:46:27.860Z,4.63
2023-03-23T02:48:57.441Z,5.30
2023-03-23T02:51:26.848Z,3.80
2023-03-23T02:53:57.256Z,3.60
2023-03-23T02:56:29.218Z,3.95
2023-03-23T02:58:57.446Z,3.80
2023-03-23T03:01:29.755Z,3.78
2023-03-23T03:04:01.904Z,4.23
2023-03-23T03:06:49.776Z,3.22
2023-03-23T03:09:26.122Z,3.00
2023-03-23T03:12:00.441Z,3.00
2023-03-23T03:14:35.542Z,3.45
2023-03-23T03:17:26.323Z,3.07
2023-03-23T03:19:58.821Z,3.00
2023-03-23T03:22:29.871Z,3.20
2023-03-23T03:24:59.669Z,4.05
2023-03-23T03:27:50.450Z,3.47
2023-03-23T03:30:29.097Z,3.00
2023-03-23T03:32:56.719Z,3.58
2023-03-23T03:35:25.408Z,3.38
2023-03-23T03:37:53.402Z,3.47
2023-03-23T03:40:23.042Z,2.80
2023-03-23T03:42:51.248Z,3.67
2023-03-23T03:45:20.680Z,3.67
2023-03-23T03:47:48.181Z,3.45
2023-03-23T03:50:17.741Z,3.13
2023-03-23T03:52:45.031Z,3.20
2023-03-23T03:55:12.370Z,2.90
2023-03-23T03:57:42.771Z,2.90
2023-03-23T04:00:29.223Z,3.17
2023-03-23T04:02:56.984Z,2.95
2023-03-23T04:05:41.670Z,2.90
2023-03-23T04:08:09.810Z,3.50
2023-03-23T04:10:37.027Z,3.60
2023-03-23T04:13:05.830Z,3.03
2023-03-23T04:16:07.329Z,3.10
2023-03-23T04:18:39.530Z,3.13
2023-03-23T04:21:09.234Z,3.60
2023-03-23T04:23:37.332Z,3.50
2023-03-23T04:26:05.426Z,3.72
2023-03-23T04:28:39.853Z,3.63
2023-03-23T04:31:25.628Z,3.80
2023-03-23T04:34:02.660Z,4.93
2023-03-23T04:36:56.550Z,5.57
2023-03-23T04:39:30.301Z,4.45
2023-03-23T04:42:02.219Z,4.72
2023-03-23T04:45:03.645Z,4.63
2023-03-23T04:47:41.337Z,4.00
2023-03-23T04:50:19.954Z,3.58
2023-03-23T04:52:49.157Z,3.35
2023-03-23T04:55:16.674Z,3.40
2023-03-23T04:57:49.320Z,3.63
2023-03-23T05:00:35.778Z,3.37
2023-03-23T05:03:04.409Z,3.00
2023-03-23T05:05:35.618Z,3.45
2023-03-23T05:08:07.126Z,3.60
2023-03-23T05:10:37.899Z,3.80
2023-03-23T05:13:09.599Z,3.80
2023-03-23T05:15:37.113Z,3.90
2023-03-23T05:18:10.674Z,3.30
2023-03-23T05:20:38.505Z,4.20
2023-03-23T05:23:11.290Z,3.67
2023-03-23T05:25:43.238Z,3.90
2023-03-23T05:28:15.751Z,3.83
2023-03-23T05:30:53.400Z,3.42
2023-03-23T05:33:21.614Z,3.10
2023-03-23T05:36:14.638Z,3.20
2023-03-23T05:39:12.588Z,3.50
2023-03-23T05:41:58.243Z,3.33
2023-03-23T05:44:28.091Z,3.10
2023-03-23T05:47:01.843Z,3.63
2023-03-23T05:49:28.857Z,3.33
2023-03-23T05:51:56.200Z,3.47
2023-03-23T05:54:23.158Z,3.13
2023-03-23T05:56:51.266Z,3.30
2023-03-23T05:59:26.331Z,3.60
2023-03-23T06:01:58.515Z,3.50
2023-03-23T06:04:28.275Z,4.13
2023-03-23T06:07:09.066Z,3.60
2023-03-23T06:09:36.167Z,5.47
2023-03-23T06:12:21.551Z,6.10
2023-03-23T06:15:08.768Z,5.78
2023-03-23T06:18:15.099Z,4.95
2023-03-23T06:21:01.470Z,4.73
2023-03-23T06:23:49.297Z,5.80
2023-03-23T06:26:19.884Z,4.90
2023-03-23T06:28:52.108Z,4.70
2023-03-23T06:31:21.517Z,4.68
2023-03-23T06:33:50.439Z,4.10
2023-03-23T06:36:28.115Z,4.25
2023-03-23T06:39:08.476Z,5.10
2023-03-23T06:41:53.720Z,5.07
2023-03-23T06:44:21.121Z,4.72
2023-03-23T06:46:49.672Z,4.47
2023-03-23T06:49:21.181Z,5.38
2023-03-23T06:51:53.609Z,5.47
2023-03-23T06:54:21.070Z,5.60
2023-03-23T06:56:48.331Z,4.82
2023-03-23T06:59:15.734Z,5.00
2023-03-23T07:01:42.950Z,4.97
2023-03-23T07:04:10.264Z,4.20
2023-03-23T07:06:46.532Z,4.53
2023-03-23T07:09:14.284Z,4.63
2023-03-23T07:11:42.636Z,4.60
2023-03-23T07:14:20.698Z,4.53
2023-03-23T07:16:47.667Z,5.05
2023-03-23T07:19:15.124Z,5.30
2023-03-23T07:21:43.165Z,4.80
2023-03-23T07:24:16.903Z,5.47
2023-03-23T07:26:57.349Z,5.38
2023-03-23T07:29:24.912Z,5.80
2023-03-23T07:32:02.666Z,5.55
2023-03-23T07:34:30.346Z,5.35
2023-03-23T07:37:09.738Z,4.67
2023-03-23T07:39:38.678Z,4.43
2023-03-23T07:42:05.649Z,4.60
2023-03-23T07:44:43.309Z,3.80
2023-03-23T07:47:13.582Z,4.10
2023-03-23T07:49:42.018Z,4.30
2023-03-23T07:52:42.488Z,5.03
2023-03-23T07:55:18.503Z,4.82
2023-03-23T07:57:54.967Z,4.13
2023-03-23T08:00:25.406Z,4.20
2023-03-23T08:03:00.366Z,4.17
2023-03-23T08:05:30.470Z,4.20
2023-03-23T08:08:24.508Z,4.40
2023-03-23T08:11:16.528Z,4.68
2023-03-23T08:13:56.109Z,4.15
2023-03-23T08:16:57.204Z,4.70
2023-03-23T08:19:53.801Z,4.60
2023-03-23T08:22:44.768Z,5.03
2023-03-23T08:25:42.844Z,4.20
2023-03-23T08:28:33.122Z,3.90
2023-03-23T08:31:20.006Z,4.00
2023-03-23T08:33:58.858Z,4.05
2023-03-23T08:36:54.269Z,4.20
2023-03-23T08:39:40.231Z,4.22
2023-03-23T08:42:30.459Z,4.30
2023-03-23T08:45:13.539Z,4.10
2023-03-23T08:47:43.972Z,3.95
2023-03-23T08:50:22.660Z,4.30
2023-03-23T08:53:14.802Z,5.00
2023-03-23T08:55:57.351Z,4.30
2023-03-23T08:58:39.388Z,4.70
2023-03-23T09:01:29.522Z,4.85
2023-03-23T09:04:16.607Z,4.00
2023-03-23T09:06:59.385Z,3.92
2023-03-23T09:09:26.395Z,4.22
2023-03-23T09:11:54.882Z,3.97
2023-03-23T09:14:21.908Z,3.80
2023-03-23T09:16:49.144Z,4.07
2023-03-23T09:19:16.827Z,3.45
2023-03-23T09:21:44.062Z,3.47
2023-03-23T09:24:11.600Z,3.50
2023-03-23T09:26:38.886Z,2.85
2023-03-23T09:29:05.831Z,3.60
2023-03-23T09:31:33.158Z,3.08
2023-03-23T09:34:00.592Z,2.80
2023-03-23T09:36:30.530Z,2.90
2023-03-23T09:38:58.619Z,3.47
2023-03-23T09:41:45.625Z,2.65
2023-03-23T09:44:19.853Z,2.78
2023-03-23T09:47:04.584Z,2.88
2023-03-23T09:49:46.407Z,2.70
2023-03-23T09:52:18.786Z,2.80
2023-03-23T09:54:51.835Z,2.40
2023-03-23T09:57:31.370Z,2.63
2023-03-23T10:00:07.279Z,2.85
2023-03-23T10:02:51.556Z,2.70
2023-03-23T10:05:40.679Z,2.70
2023-03-23T10:08:14.634Z,2.60
2023-03-23T10:10:53.838Z,2.53
2023-03-23T10:13:29.457Z,3.08
2023-03-23T10:15:57.029Z,2.80
2023-03-23T10:18:37.652Z,2.40
2023-03-23T10:21:05.345Z,2.58
2023-03-23T10:23:54.541Z,2.60
2023-03-23T10:26:27.368Z,2.65
2023-03-23T10:29:05.804Z,2.60
2023-03-23T10:31:38.466Z,2.55
2023-03-23T10:34:29.636Z,2.13
2023-03-23T10:37:09.924Z,2.30
2023-03-23T10:39:49.707Z,2.15
2023-03-23T10:42:34.875Z,2.63
2023-03-23T10:45:11.807Z,2.47
2023-03-23T10:47:41.480Z,2.90
2023-03-23T10:50:15.266Z,2.40
2023-03-23T10:52:45.948Z,2.40
2023-03-23T10:55:19.166Z,2.37
2023-03-23T10:58:02.267Z,2.50
2023-03-23T11:00:30.891Z,3.00
2023-03-23T11:03:06.949Z,2.53
2023-03-23T11:05:44.943Z,3.05
2023-03-23T11:08:17.780Z,2.23
2023-03-23T11:10:56.523Z,2.60
2023-03-23T11:13:30.551Z,2.40
2023-03-23T11:15:58.194Z,2.47
2023-03-23T11:18:45.196Z,3.17
2023-03-23T11:21:14.842Z,2.20
2023-03-23T11:23:44.044Z,2.40
2023-03-23T11:26:28.731Z,3.30
2023-03-23T11:29:22.229Z,2.92
2023-03-23T11:32:02.368Z,2.63
2023-03-23T11:34:37.779Z,2.37
2023-03-23T11:37:18.270Z,2.42
2023-03-23T11:39:56.022Z,1.98
2023-03-23T11:42:29.370Z,2.10
2023-03-23T11:45:14.571Z,2.50
2023-03-23T11:47:50.835Z,2.17
2023-03-23T11:50:45.248Z,2.47
2023-03-23T11:53:44.860Z,2.60
2023-03-23T11:56:24.205Z,2.40
2023-03-23T11:58:52.138Z,2.90
2023-03-23T12:01:25.631Z,2.80
2023-03-23T12:04:11.051Z,3.08
2023-03-23T12:07:02.270Z,3.05
2023-03-23T12:09:41.710Z,2.67
2023-03-23T12:12:18.974Z,3.75
2023-03-23T12:15:16.225Z,3.37
2023-03-23T12:17:55.136Z,3.25
2023-03-23T12:20:37.742Z,2.92
2023-03-23T12:23:23.672Z,3.35
2023-03-23T12:26:14.967Z,3.20
2023-03-23T12:28:54.209Z,3.33
2023-03-23T12:31:26.779Z,4.28
2023-03-23T12:34:09.085Z,3.40
2023-03-23T12:36:58.573Z,2.70
2023-03-23T12:39:50.227Z,2.60
2023-03-23T12:42:44.782Z,2.90
2023-03-23T12:45:11.964Z,2.60
2023-03-23T12:47:46.891Z,2.60
2023-03-23T12:50:40.750Z,2.38
2023-03-23T12:53:14.384Z,2.42
2023-03-23T12:55:55.470Z,2.23
2023-03-23T12:58:30.153Z,2.95
2023-03-23T13:01:00.093Z,2.35
2023-03-23T13:03:44.048Z,2.83
2023-03-23T13:06:16.895Z,3.03
2023-03-23T13:08:54.435Z,2.33
2023-03-23T13:11:34.356Z,1.98
2023-03-23T13:14:26.896Z,1.70
2023-03-23T13:17:07.210Z,1.70
2023-03-23T13:19:52.710Z,2.00
2023-03-23T13:22:28.705Z,1.80
2023-03-23T13:25:00.852Z,1.92
2023-03-23T13:27:30.856Z,1.80
2023-03-23T13:30:03.261Z,2.40
2023-03-23T13:32:43.626Z,1.90
2023-03-23T13:35:18.329Z,2.20
2023-03-23T13:37:51.078Z,2.08
2023-03-23T13:40:30.837Z,2.00
2023-03-23T13:43:00.202Z,2.10
2023-03-23T13:45:34.811Z,1.90
2023-03-23T13:48:13.955Z,2.40
2023-03-23T13:50:56.576Z,1.88
2023-03-23T13:53:49.538Z,2.00
2023-03-23T13:56:18.512Z,1.85
2023-03-23T13:58:53.159Z,2.20
2023-03-23T14:01:33.702Z,2.10
2023-03-23T14:04:02.104Z,2.05
2023-03-23T14:06:35.549Z,2.00
2023-03-23T14:09:29.810Z,2.30
2023-03-23T14:12:09.999Z,2.30
2023-03-23T14:14:44.221Z,2.20
2023-03-23T14:17:26.241Z,2.08
2023-03-23T14:20:00.213Z,2.20
2023-03-23T14:22:41.858Z,2.20
2023-03-23T14:25:17.860Z,2.30
2023-03-23T14:27:46.979Z,2.50
2023-03-23T14:30:26.091Z,2.03
2023-03-23T14:32:54.946Z,2.40
2023-03-23T14:35:31.546Z,2.30
2023-03-23T14:37:59.526Z,2.78
2023-03-23T14:40:31.049Z,2.90
2023-03-23T14:42:59.063Z,2.72
2023-03-23T14:45:27.314Z,2.60
2023-03-23T14:47:59.640Z,2.50
2023-03-23T14:50:29.948Z,2.95
2023-03-23T14:53:00.435Z,2.47
2023-03-23T14:55:29.885Z,2.70
2023-03-23T14:57:57.466Z,2.58
2023-03-23T15:00:31.134Z,2.80
2023-03-23T15:03:01.158Z,2.67
2023-03-23T15:05:42.763Z,2.40
2023-03-23T15:08:17.090Z,2.85
2023-03-23T15:10:53.844Z,2.70
2023-03-23T15:13:21.270Z,2.50
2023-03-23T15:15:48.641Z,2.20
2023-03-23T15:18:32.227Z,3.03
2023-03-23T15:20:59.237Z,2.80
2023-03-23T15:23:30.519Z,2.67
2023-03-23T15:26:08.873Z,2.55
2023-03-23T15:28:41.559Z,3.03
2023-03-23T15:31:08.523Z,3.40
2023-03-23T15:33:38.703Z,3.70
2023-03-23T15:36:16.579Z,3.08
2023-03-23T15:38:48.241Z,2.72
2023-03-23T15:41:26.913Z,2.10
2023-03-23T15:43:59.781Z,2.80
2023-03-23T15:46:28.973Z,2.75
2023-03-23T15:48:58.976Z,2.83
2023-03-23T15:51:28.581Z,2.08
2023-03-23T15:54:00.094Z,2.95
2023-03-23T15:56:27.468Z,2.30
2023-03-23T15:58:54.831Z,2.08
2023-03-23T16:01:25.547Z,2.10
2023-03-23T16:04:01.992Z,2.10
2023-03-23T16:06:32.121Z,2.20
2023-03-23T16:08:59.732Z,2.30
2023-03-23T16:11:30.034Z,2.20
2023-03-23T16:13:58.488Z,2.15
2023-03-23T16:16:32.282Z,2.15
2023-03-23T16:18:59.605Z,1.90
2023-03-23T16:21:26.726Z,2.30
2023-03-23T16:23:54.486Z,2.35
2023-03-23T16:26:21.409Z,2.22
2023-03-23T16:28:49.001Z,2.05
2023-03-23T16:31:16.552Z,2.10
2023-03-23T16:33:43.863Z,2.40
2023-03-23T16:36:13.094Z,2.40
2023-03-23T16:38:51.035Z,2.30
2023-03-23T16:41:19.470Z,2.25
2023-03-23T16:43:46.789Z,2.53
2023-03-23T16:46:14.450Z,2.60
2023-03-23T16:48:41.918Z,2.70
2023-03-23T16:51:08.956Z,2.53
2023-03-23T16:53:37.024Z,2.40
2023-03-23T16:56:05.213Z,2.38
2023-03-23T16:58:32.474Z,2.40
2023-03-23T17:01:01.276Z,2.40
2023-03-23T17:03:29.020Z,2.70
2023-03-23T17:05:56.057Z,4.13
2023-03-23T17:08:23.325Z,3.70
2023-03-23T17:10:50.679Z,4.70
2023-03-23T17:13:18.179Z,4.13
2023-03-23T17:15:47.206Z,4.30
2023-03-23T17:18:15.643Z,5.30
2023-03-23T17:20:43.066Z,5.28
2023-03-23T17:23:10.680Z,4.00
2023-03-23T17:25:37.835Z,5.15
2023-03-23T17:28:06.774Z,5.10
2023-03-23T17:30:35.209Z,6.22
2023-03-23T17:33:03.158Z,10.88
2023-03-23T17:35:30.242Z,15.67
2023-03-23T17:37:57.881Z,13.43
2023-03-23T17:40:25.169Z,12.77
2023-03-23T17:42:52.509Z,9.02
2023-03-23T17:45:19.609Z,6.57
2023-03-23T17:47:46.851Z,6.67
2023-03-23T17:50:13.955Z,7.43
2023-03-23T17:52:41.928Z,5.97
2023-03-23T17:55:09.461Z,4.60
2023-03-23T17:57:36.917Z,5.55
2023-03-23T18:00:07.946Z,3.80
2023-03-23T18:02:36.695Z,3.63
2023-03-23T18:05:04.042Z,3.40
2023-03-23T18:07:31.635Z,3.17
2023-03-23T18:09:59.813Z,4.00
2023-03-23T18:12:27.170Z,4.40
2023-03-23T18:14:58.685Z,3.20
2023-03-23T18:17:27.067Z,3.42
2023-03-23T18:19:54.633Z,5.20
2023-03-23T18:22:22.271Z,3.40
2023-03-23T18:24:49.738Z,4.30
2023-03-23T18:27:17.502Z,4.40
2023-03-23T18:29:44.575Z,4.05
2023-03-23T18:32:12.000Z,3.10
2023-03-23T18:34:41.907Z,4.13
2023-03-23T18:37:09.396Z,3.93
2023-03-23T18:39:37.240Z,4.43
2023-03-23T18:42:05.691Z,3.58
2023-03-23T18:44:32.594Z,3.80
2023-03-23T18:47:00.126Z,3.80
2023-03-23T18:49:28.661Z,4.53
2023-03-23T18:51:56.302Z,4.13
2023-03-23T18:54:23.277Z,5.47
2023-03-23T18:56:50.505Z,12.30
2023-03-23T18:59:17.481Z,7.97
2023-03-23T19:01:45.050Z,4.80
2023-03-23T19:04:13.734Z,4.57
2023-03-23T19:06:41.207Z,4.25
2023-03-23T19:09:08.150Z,3.90
2023-03-23T19:11:35.418Z,3.97
2023-03-23T19:14:03.617Z,3.60
2023-03-23T19:16:32.989Z,3.00
2023-03-23T19:19:01.999Z,2.95
2023-03-23T19:21:32.004Z,2.80
2023-03-23T19:24:00.763Z,2.90
2023-03-23T19:26:38.333Z,2.50
2023-03-23T19:31:38.498Z,2.60
2023-03-23T19:34:06.255Z,2.38
2023-03-23T19:36:33.665Z,2.90
2023-03-23T19:39:03.015Z,2.87
2023-03-23T19:41:31.724Z,3.40
2023-03-23T19:43:59.497Z,2.80
2023-03-23T19:46:30.245Z,3.00
2023-03-23T19:48:58.439Z,3.25
2023-03-23T19:51:26.770Z,3.50
2023-03-23T19:53:57.316Z,3.38
2023-03-23T19:56:25.459Z,3.17
2023-03-23T19:58:52.673Z,3.00
2023-03-23T20:01:20.265Z,3.05
2023-03-23T20:03:47.714Z,3.17
2023-03-23T20:06:15.880Z,2.75
2023-03-23T20:08:45.463Z,3.25
2023-03-23T20:11:17.389Z,2.83
2023-03-23T20:13:46.130Z,3.05
2023-03-23T20:16:13.512Z,3.27
2023-03-23T20:18:41.066Z,2.75
2023-03-23T20:21:11.111Z,2.70
2023-03-23T20:23:39.335Z,2.60
2023-03-23T20:26:15.125Z,2.67
2023-03-23T20:28:42.917Z,2.87
2023-03-23T20:31:24.304Z,2.30
2023-03-23T20:34:00.765Z,2.30
2023-03-23T20:36:35.178Z,2.28
2023-03-23T20:39:12.066Z,2.33
2023-03-23T20:41:40.528Z,2.97
2023-03-23T20:44:14.262Z,2.90
2023-03-23T20:46:46.843Z,3.35
2023-03-23T20:49:16.037Z,2.55
2023-03-23T20:51:45.006Z,2.80
2023-03-23T20:54:16.079Z,2.57
2023-03-23T20:56:44.844Z,2.38
2023-03-23T20:59:12.508Z,2.22
2023-03-23T21:01:40.120Z,2.20
2023-03-23T21:04:15.147Z,2.05
2023-03-23T21:06:43.940Z,2.00
2023-03-23T21:09:13.576Z,2.05
2023-03-23T21:11:42.168Z,1.98
2023-03-23T21:14:09.814Z,1.98
2023-03-23T21:16:37.632Z,2.00
2023-03-23T21:19:05.731Z,2.53
2023-03-23T21:21:34.346Z,2.40
2023-03-23T21:24:01.939Z,3.17
2023-03-23T21:26:30.571Z,2.63
2023-03-23T21:29:00.753Z,2.63
2023-03-23T21:31:33.397Z,2.60
2023-03-23T21:34:01.140Z,2.38
2023-03-23T21:36:29.536Z,2.28
2023-03-23T21:38:57.275Z,2.25
2023-03-23T21:41:24.938Z,2.30
2023-03-23T21:43:51.941Z,2.30
2023-03-23T21:46:19.536Z,2.17
2023-03-23T21:48:51.716Z,2.10
2023-03-23T21:51:25.559Z,2.00
2023-03-23T21:53:54.518Z,2.08
2023-03-23T21:56:23.967Z,2.20
2023-03-23T21:58:51.902Z,1.95
2023-03-23T22:01:20.085Z,2.15
2023-03-23T22:03:47.562Z,2.05
2023-03-23T22:06:19.033Z,2.00
2023-03-23T22:08:47.275Z,2.20
2023-03-23T22:11:20.876Z,2.28
2023-03-23T22:13:51.064Z,2.60
2023-03-23T22:16:19.744Z,2.63
2023-03-23T22:18:48.222Z,3.08
2023-03-23T22:21:17.091Z,4.57
2023-03-23T22:23:45.641Z,3.80
2023-03-23T22:26:14.127Z,3.60
2023-03-23T22:28:41.627Z,3.33
2023-03-23T22:31:13.761Z,3.05
2023-03-23T22:33:41.011Z,2.93
2023-03-23T22:36:08.848Z,3.25
2023-03-23T22:38:37.443Z,2.85
2023-03-23T22:41:07.269Z,2.30
2023-03-23T22:43:36.178Z,2.75
2023-03-23T22:46:05.290Z,2.40
2023-03-23T22:48:32.788Z,2.63
2023-03-23T22:51:00.462Z,2.50
2023-03-23T22:53:27.501Z,2.58
2023-03-23T22:55:56.502Z,2.60
2023-03-23T22:58:25.244Z,2.43
2023-03-23T23:01:01.673Z,3.00
2023-03-23T23:03:30.169Z,3.08
2023-03-23T23:05:59.221Z,3.00
2023-03-23T23:08:28.611Z,2.60
2023-03-23T23:10:58.356Z,2.90
2023-03-23T23:13:26.102Z,3.42
2023-03-23T23:15:56.648Z,3.03
2023-03-23T23:18:25.151Z,2.72
2023-03-23T23:20:55.635Z,2.83
2023-03-23T23:23:24.306Z,2.70
2023-03-23T23:25:52.372Z,3.00
2023-03-23T23:28:20.504Z,2.90
2023-03-23T23:30:48.536Z,2.45
2023-03-23T23:33:15.852Z,2.90
2023-03-23T23:35:43.214Z,2.80
2023-03-23T23:38:12.749Z,3.50
2023-03-23T23:40:41.480Z,3.90
2023-03-23T23:43:11.048Z,4.20
2023-03-23T23:45:38.760Z,4.65
2023-03-23T23:48:06.291Z,3.83
2023-03-23T23:50:34.108Z,4.10
2023-03-23T23:53:01.132Z,4.00
2023-03-23T23:55:28.638Z,4.50
2023-03-23T23:57:56.230Z,4.03
